createdAt,value
2019-02-10T00:00:48.124Z,97.53
2019-02-10T00:03:18.483Z,98.06
2019-02-10T00:05:49.079Z,98.41
2019-02-10T00:08:19.825Z,98.63
2019-02-10T00:10:50.892Z,98.91
2019-02-10T00:13:35.300Z,99.16
2019-02-10T00:16:26.877Z,99.44
2019-02-10T00:18:59.884Z,99.76
2019-02-10T00:21:30.905Z,100.00
2019-02-10T00:24:02.078Z,100.00
2019-02-10T00:26:32.964Z,100.00
2019-02-10T00:29:04.102Z,100.00
2019-02-10T00:31:35.183Z,100.00
2019-02-10T00:34:08.175Z,100.00
2019-02-10T00:36:39.324Z,100.00
2019-02-10T00:39:10.179Z,100.00
2019-02-10T00:41:43.124Z,100.00
2019-02-10T00:44:15.123Z,100.00
2019-02-10T00:46:46.002Z,100.00
2019-02-10T00:49:16.965Z,100.00
2019-02-10T00:51:48.663Z,100.00
2019-02-10T00:54:19.180Z,100.00
2019-02-10T00:56:52.015Z,100.00
2019-02-10T00:59:24.205Z,100.00
2019-02-10T01:01:55.143Z,100.00
2019-02-10T01:04:26.190Z,100.00
2019-02-10T01:06:57.116Z,100.00
2019-02-10T01:09:28.063Z,100.00
2019-02-10T01:11:59.238Z,100.00
2019-02-10T01:14:30.148Z,100.00
2019-02-10T01:17:01.104Z,100.00
2019-02-10T01:19:32.184Z,100.00
2019-02-10T01:22:03.126Z,100.00
2019-02-10T01:24:33.959Z,100.00
2019-02-10T01:27:04.463Z,100.00
2019-02-10T01:29:35.292Z,100.00
2019-02-10T01:32:06.928Z,100.00
2019-02-10T01:34:37.875Z,100.00
2019-02-10T01:37:09.285Z,100.00
2019-02-10T01:39:39.672Z,100.00
2019-02-10T01:42:10.574Z,100.00
2019-02-10T01:44:41.821Z,100.00
2019-02-10T01:47:12.419Z,100.00
2019-02-10T01:49:43.288Z,100.00
2019-02-10T01:52:14.362Z,100.00
2019-02-10T01:54:45.298Z,100.00
2019-02-10T01:57:16.173Z,100.00
2019-02-10T01:59:47.225Z,100.00
2019-02-10T02:02:18.188Z,100.00
2019-02-10T02:04:48.972Z,100.00
2019-02-10T02:07:19.867Z,100.00
2019-02-10T02:09:50.823Z,100.00
2019-02-10T02:12:21.477Z,100.00
2019-02-10T02:14:52.470Z,100.00
2019-02-10T02:17:23.814Z,100.00
2019-02-10T02:19:54.712Z,100.00
2019-02-10T02:22:25.392Z,100.00
2019-02-10T02:24:56.517Z,100.00
2019-02-10T02:27:27.476Z,100.00
2019-02-10T02:29:58.412Z,100.00
2019-02-10T02:32:29.433Z,100.00
2019-02-10T02:35:00.239Z,100.00
2019-02-10T02:37:31.269Z,100.00
2019-02-10T02:40:01.688Z,100.00
2019-02-10T02:42:32.982Z,100.00
2019-02-10T02:45:03.660Z,100.00
2019-02-10T02:47:34.529Z,100.00
2019-02-10T02:50:06.177Z,100.00
2019-02-10T02:52:36.610Z,100.00
2019-02-10T02:55:07.833Z,100.00
2019-02-10T02:57:38.357Z,100.00
2019-02-10T03:00:09.482Z,100.00
2019-02-10T03:02:39.912Z,100.00
2019-02-10T03:05:11.038Z,100.00
2019-02-10T03:07:42.304Z,100.00
2019-02-10T03:10:12.820Z,100.00
2019-02-10T03:12:44.140Z,100.00
2019-02-10T03:15:14.747Z,100.00
2019-02-10T03:17:45.991Z,100.00
2019-02-10T03:20:16.890Z,100.00
2019-02-10T03:22:47.948Z,100.00
2019-02-10T03:25:18.734Z,100.00
2019-02-10T03:27:49.743Z,100.00
2019-02-10T03:30:20.751Z,100.00
2019-02-10T03:32:51.724Z,100.00
2019-02-10T03:35:22.606Z,100.00
2019-02-10T03:37:53.558Z,100.00
2019-02-10T03:40:24.902Z,100.00
2019-02-10T03:42:55.593Z,100.00
2019-02-10T03:45:26.639Z,100.00
2019-02-10T03:47:57.580Z,100.00
2019-02-10T03:50:28.605Z,100.00
2019-02-10T03:52:58.950Z,100.00
2019-02-10T03:55:29.957Z,100.00
2019-02-10T03:58:00.915Z,100.00
2019-02-10T04:00:31.869Z,100.00
2019-02-10T04:03:02.968Z,100.00
2019-02-10T04:05:34.162Z,100.00
2019-02-10T04:08:04.893Z,100.00
2019-02-10T04:10:36.197Z,100.00
2019-02-10T04:13:07.170Z,100.00
2019-02-10T04:15:37.908Z,100.00
2019-02-10T04:18:08.948Z,100.00
2019-02-10T04:20:39.729Z,100.00
2019-02-10T04:23:10.910Z,100.00
2019-02-10T04:25:42.108Z,100.00
2019-02-10T04:28:12.996Z,100.00
2019-02-10T04:30:43.987Z,100.00
2019-02-10T04:33:14.830Z,100.00
2019-02-10T04:35:45.842Z,100.00
2019-02-10T04:38:16.799Z,100.00
2019-02-10T04:40:47.174Z,100.00
2019-02-10T04:43:17.995Z,100.00
2019-02-10T04:45:49.172Z,100.00
2019-02-10T04:48:20.260Z,100.00
2019-02-10T04:50:51.765Z,100.00
2019-02-10T04:53:22.182Z,100.00
2019-02-10T04:56:19.101Z,100.00
2019-02-10T04:58:51.213Z,100.00
2019-02-10T05:01:23.177Z,100.00
2019-02-10T05:03:56.270Z,100.00
2019-02-10T05:06:27.228Z,100.00
2019-02-10T05:08:58.225Z,100.00
2019-02-10T05:11:29.182Z,100.00
2019-02-10T05:14:00.071Z,100.00
2019-02-10T05:16:31.067Z,100.00
2019-02-10T05:19:01.987Z,100.00
2019-02-10T05:21:32.923Z,100.00
2019-02-10T05:24:03.927Z,100.00
2019-02-10T05:26:34.717Z,100.00
2019-02-10T05:29:07.375Z,100.00
2019-02-10T05:31:38.447Z,100.00
2019-02-10T05:34:09.271Z,100.00
2019-02-10T05:36:39.806Z,100.00
2019-02-10T05:39:11.259Z,100.00
2019-02-10T05:41:42.396Z,100.00
2019-02-10T05:44:13.247Z,100.00
2019-02-10T05:46:44.257Z,100.00
2019-02-10T05:49:15.110Z,100.00
2019-02-10T05:51:46.089Z,100.00
2019-02-10T05:54:17.014Z,100.00
2019-02-10T05:56:48.096Z,100.00
2019-02-10T05:59:18.457Z,100.00
2019-02-10T06:02:09.397Z,100.00
2019-02-10T06:04:41.939Z,100.00
2019-02-10T06:07:16.531Z,100.00
2019-02-10T06:09:51.051Z,100.00
2019-02-10T06:12:23.834Z,100.00
2019-02-10T06:14:54.547Z,100.00
2019-02-10T06:17:25.446Z,100.00
2019-02-10T06:19:56.335Z,100.00
2019-02-10T06:22:27.280Z,100.00
2019-02-10T06:24:58.250Z,100.00
2019-02-10T06:27:29.327Z,100.00
2019-02-10T06:30:00.332Z,100.00
2019-02-10T06:32:30.986Z,100.00
2019-02-10T06:35:01.625Z,100.00
2019-02-10T06:37:32.566Z,100.00
2019-02-10T06:40:04.697Z,100.00
2019-02-10T06:42:35.357Z,100.00
2019-02-10T06:45:07.168Z,100.00
2019-02-10T06:47:37.804Z,100.00
2019-02-10T06:50:09.032Z,100.00
2019-02-10T06:52:39.425Z,100.00
2019-02-10T06:55:11.864Z,100.00
2019-02-10T06:57:43.830Z,100.00
2019-02-10T07:00:45.883Z,100.00
2019-02-10T07:03:43.160Z,100.00
2019-02-10T07:06:14.123Z,100.00
2019-02-10T07:08:45.043Z,100.00
2019-02-10T07:11:15.695Z,100.00
2019-02-10T07:13:54.600Z,100.00
2019-02-10T07:16:42.638Z,100.00
2019-02-10T07:19:51.109Z,100.00
2019-02-10T07:23:02.706Z,100.00
2019-02-10T07:25:55.884Z,100.00
2019-02-10T07:28:49.142Z,100.00
2019-02-10T07:31:25.056Z,100.00
2019-02-10T07:34:48.270Z,100.00
2019-02-10T07:37:40.117Z,100.00
2019-02-10T07:41:06.866Z,100.00
2019-02-10T07:44:18.187Z,100.00
2019-02-10T07:47:22.180Z,100.00
2019-02-10T07:50:48.051Z,100.00
2019-02-10T07:53:38.851Z,100.00
2019-02-10T07:56:49.083Z,100.00
2019-02-10T07:59:43.400Z,100.00
2019-02-10T08:02:57.860Z,100.00
2019-02-10T08:05:51.658Z,100.00
2019-02-10T08:09:05.376Z,100.00
2019-02-10T08:12:01.135Z,100.00
2019-02-10T08:14:46.672Z,100.00
2019-02-10T08:18:08.653Z,100.00
2019-02-10T08:20:49.324Z,100.00
2019-02-10T08:23:41.124Z,100.00
2019-02-10T08:26:47.563Z,100.00
2019-02-10T08:29:45.096Z,100.00
2019-02-10T08:32:42.584Z,100.00
2019-02-10T08:35:54.758Z,100.00
2019-02-10T08:38:54.815Z,100.00
2019-02-10T08:42:07.039Z,100.00
2019-02-10T08:45:09.605Z,100.00
2019-02-10T08:48:04.126Z,100.00
2019-02-10T08:51:09.694Z,100.00
2019-02-10T08:53:42.765Z,100.00
2019-02-10T08:56:13.306Z,99.81
2019-02-10T08:58:44.257Z,99.53
2019-02-10T09:01:15.178Z,99.52
2019-02-10T09:03:47.923Z,99.73
2019-02-10T09:06:20.321Z,99.83
2019-02-10T09:08:51.268Z,99.85
2019-02-10T09:11:22.279Z,99.83
2019-02-10T09:13:53.322Z,100.00
2019-02-10T09:16:27.981Z,100.00
2019-02-10T09:19:01.968Z,99.74
2019-02-10T09:21:34.125Z,99.33
2019-02-10T09:24:04.863Z,99.07
2019-02-10T09:26:35.677Z,98.86
2019-02-10T09:29:06.323Z,98.53
2019-02-10T09:31:37.141Z,98.39
2019-02-10T09:34:07.713Z,98.48
2019-02-10T09:36:38.429Z,98.19
2019-02-10T09:39:10.795Z,98.04
2019-02-10T09:41:43.830Z,98.22
2019-02-10T09:44:16.475Z,98.04
2019-02-10T09:46:47.385Z,98.00
2019-02-10T09:49:18.388Z,97.53
2019-02-10T09:51:49.505Z,97.46
2019-02-10T09:54:22.514Z,97.26
2019-02-10T09:56:53.489Z,96.74
2019-02-10T09:59:24.905Z,96.00
2019-02-10T10:01:56.516Z,95.74
2019-02-10T10:04:28.644Z,95.41
2019-02-10T10:06:59.531Z,94.73
2019-02-10T10:09:30.569Z,94.36
2019-02-10T10:12:03.590Z,93.80
2019-02-10T10:14:34.496Z,93.28
2019-02-10T10:17:05.684Z,93.24
2019-02-10T10:19:36.342Z,93.32
2019-02-10T10:22:07.003Z,92.75
2019-02-10T10:24:37.547Z,92.81
2019-02-10T10:27:08.543Z,93.30
2019-02-10T10:29:39.137Z,93.58
2019-02-10T10:32:09.574Z,93.93
2019-02-10T10:34:41.821Z,94.57
2019-02-10T10:37:13.583Z,94.84
2019-02-10T10:39:44.626Z,95.07
2019-02-10T10:42:15.672Z,94.91
2019-02-10T10:44:46.601Z,94.59
2019-02-10T10:47:17.720Z,94.47
2019-02-10T10:49:53.276Z,94.51
2019-02-10T10:52:24.656Z,94.25
2019-02-10T10:54:55.835Z,94.31
2019-02-10T10:57:28.822Z,94.34
2019-02-10T11:00:02.806Z,94.53
2019-02-10T11:02:33.735Z,94.64
2019-02-10T11:05:04.527Z,94.26
2019-02-10T11:07:34.953Z,94.26
2019-02-10T11:10:06.287Z,94.30
2019-02-10T11:12:36.671Z,93.54
2019-02-10T11:15:08.415Z,93.71
2019-02-10T11:17:40.206Z,93.71
2019-02-10T11:20:11.176Z,93.38
2019-02-10T11:22:43.895Z,92.95
2019-02-10T11:25:16.007Z,93.02
2019-02-10T11:27:46.894Z,93.51
2019-02-10T11:30:18.027Z,93.49
2019-02-10T11:32:50.132Z,93.49
2019-02-10T11:35:23.602Z,93.23
2019-02-10T11:37:56.113Z,91.99
2019-02-10T11:40:27.263Z,91.39
2019-02-10T11:43:00.103Z,91.39
2019-02-10T11:45:31.082Z,91.83
2019-02-10T11:48:02.023Z,92.09
2019-02-10T11:50:33.050Z,91.50
2019-02-10T11:53:03.625Z,91.30
2019-02-10T11:55:34.135Z,91.30
2019-02-10T11:58:05.139Z,91.16
2019-02-10T12:00:35.925Z,91.17
2019-02-10T12:03:06.726Z,90.46
2019-02-10T12:05:37.163Z,89.20
2019-02-10T12:08:07.996Z,88.15
2019-02-10T12:10:39.166Z,87.26
2019-02-10T12:13:09.567Z,87.14
2019-02-10T12:15:40.224Z,87.14
2019-02-10T12:18:11.046Z,86.45
2019-02-10T12:20:41.827Z,85.82
2019-02-10T12:23:12.589Z,85.82
2019-02-10T12:25:43.329Z,85.71
2019-02-10T12:28:14.209Z,86.37
2019-02-10T12:30:44.987Z,86.46
2019-02-10T12:33:17.465Z,86.55
2019-02-10T12:35:49.312Z,86.19
2019-02-10T12:38:20.337Z,86.12
2019-02-10T12:40:51.220Z,85.85
2019-02-10T12:43:22.192Z,85.43
2019-02-10T12:45:54.842Z,85.24
2019-02-10T12:48:26.569Z,85.00
2019-02-10T12:50:57.383Z,84.25
2019-02-10T12:53:28.330Z,83.66
2019-02-10T12:56:01.415Z,82.67
2019-02-10T12:58:33.326Z,82.07
2019-02-10T13:01:06.297Z,81.79
2019-02-10T13:03:38.513Z,81.06
2019-02-10T13:06:10.277Z,79.78
2019-02-10T13:08:40.804Z,78.33
2019-02-10T13:11:12.483Z,76.98
2019-02-10T13:13:43.904Z,75.63
2019-02-10T13:16:19.048Z,74.85
2019-02-10T13:18:52.568Z,73.84
2019-02-10T13:21:26.060Z,72.73
2019-02-10T13:23:57.365Z,72.34
2019-02-10T13:26:29.562Z,71.19
2019-02-10T13:29:00.520Z,70.04
2019-02-10T13:31:31.403Z,69.85
2019-02-10T13:34:04.498Z,69.44
2019-02-10T13:36:35.598Z,69.75
2019-02-10T13:39:08.176Z,69.49
2019-02-10T13:41:38.740Z,69.21
2019-02-10T13:44:11.438Z,69.03
2019-02-10T13:46:43.491Z,68.44
2019-02-10T13:49:15.844Z,67.98
2019-02-10T13:51:48.522Z,67.13
2019-02-10T13:54:20.788Z,66.98
2019-02-10T13:56:53.556Z,67.40
2019-02-10T13:59:24.661Z,68.64
2019-02-10T14:01:55.669Z,69.18
2019-02-10T14:04:26.596Z,69.81
2019-02-10T14:06:57.697Z,69.83
2019-02-10T14:09:29.614Z,70.76
2019-02-10T14:12:01.643Z,71.12
2019-02-10T14:14:32.661Z,71.47
2019-02-10T14:17:03.690Z,71.72
2019-02-10T14:19:34.638Z,71.72
2019-02-10T14:22:05.529Z,71.97
2019-02-10T14:24:36.053Z,71.96
2019-02-10T14:27:06.600Z,71.55
2019-02-10T14:29:37.718Z,70.66
2019-02-10T14:32:09.108Z,69.85
2019-02-10T14:34:39.531Z,69.05
2019-02-10T14:37:10.122Z,69.05
2019-02-10T14:39:40.633Z,68.47
2019-02-10T14:42:11.726Z,68.32
2019-02-10T14:44:42.485Z,68.51
2019-02-10T14:47:13.213Z,68.62
2019-02-10T14:49:43.790Z,68.21
2019-02-10T14:52:14.892Z,67.64
2019-02-10T14:54:45.677Z,67.21
2019-02-10T14:57:16.256Z,66.47
2019-02-10T14:59:46.909Z,67.01
2019-02-10T15:02:17.855Z,67.31
2019-02-10T15:04:48.907Z,67.64
2019-02-10T15:07:25.172Z,68.00
2019-02-10T15:09:52.955Z,68.52
2019-02-10T15:12:23.860Z,69.94
2019-02-10T15:14:55.032Z,70.61
2019-02-10T15:17:25.972Z,71.27
2019-02-10T15:19:56.896Z,71.83
2019-02-10T15:22:29.961Z,72.59
2019-02-10T15:25:01.043Z,72.81
2019-02-10T15:27:32.053Z,72.96
2019-02-10T15:30:05.197Z,73.34
2019-02-10T15:32:36.087Z,73.79
2019-02-10T15:35:06.891Z,74.34
2019-02-10T15:37:38.048Z,75.11
2019-02-10T15:40:09.178Z,75.93
2019-02-10T15:42:40.624Z,76.83
2019-02-10T15:45:13.069Z,77.65
2019-02-10T15:47:44.123Z,78.81
2019-02-10T15:50:15.109Z,79.70
2019-02-10T15:52:47.159Z,80.20
2019-02-10T15:55:19.349Z,79.74
2019-02-10T15:57:50.446Z,80.12
2019-02-10T16:00:23.373Z,81.04
2019-02-10T16:02:55.118Z,82.13
2019-02-10T16:05:26.176Z,83.31
2019-02-10T16:07:59.080Z,84.07
2019-02-10T16:10:31.357Z,84.70
2019-02-10T16:13:04.278Z,85.58
2019-02-10T16:15:35.238Z,86.41
2019-02-10T16:18:07.210Z,87.32
2019-02-10T16:20:39.299Z,88.10
2019-02-10T16:23:10.299Z,88.96
2019-02-10T16:25:40.976Z,89.75
2019-02-10T16:28:12.661Z,90.37
2019-02-10T16:30:44.325Z,91.07
2019-02-10T16:33:16.341Z,91.57
2019-02-10T16:35:47.343Z,92.31
2019-02-10T16:38:18.201Z,92.94
2019-02-10T16:40:49.067Z,93.37
2019-02-10T16:43:19.753Z,93.88
2019-02-10T16:45:54.410Z,94.40
2019-02-10T16:48:27.384Z,95.06
2019-02-10T16:50:58.368Z,95.34
2019-02-10T16:53:32.109Z,95.47
2019-02-10T16:56:05.246Z,95.86
2019-02-10T16:58:37.314Z,96.12
2019-02-10T17:01:10.473Z,96.54
2019-02-10T17:03:41.043Z,96.70
2019-02-10T17:06:12.280Z,97.01
2019-02-10T17:08:43.169Z,97.36
2019-02-10T17:11:14.498Z,97.65
2019-02-10T17:13:47.478Z,97.98
2019-02-10T17:16:18.561Z,98.47
2019-02-10T17:18:51.524Z,98.84
2019-02-10T17:21:22.497Z,99.02
2019-02-10T17:23:53.700Z,99.07
2019-02-10T17:26:24.598Z,99.04
2019-02-10T17:28:55.730Z,99.29
2019-02-10T17:31:28.518Z,99.37
2019-02-10T17:33:59.635Z,99.34
2019-02-10T17:36:30.718Z,99.58
2019-02-10T17:39:01.576Z,99.83
2019-02-10T17:41:39.268Z,100.00
2019-02-10T17:44:11.739Z,100.00
2019-02-10T17:46:44.803Z,100.00
2019-02-10T17:49:16.638Z,99.99
2019-02-10T17:51:47.535Z,99.76
2019-02-10T17:54:19.268Z,99.72
2019-02-10T17:56:49.727Z,99.77
2019-02-10T17:59:21.630Z,99.97
2019-02-10T18:01:53.860Z,100.00
2019-02-10T18:04:24.667Z,100.00
2019-02-10T18:06:55.657Z,100.00
2019-02-10T18:09:26.860Z,100.00
2019-02-10T18:11:59.796Z,100.00
2019-02-10T18:14:57.831Z,100.00
2019-02-10T18:17:53.609Z,100.00
2019-02-10T18:20:44.531Z,100.00
2019-02-10T18:23:33.044Z,100.00
2019-02-10T18:26:24.587Z,100.00
2019-02-10T18:29:13.125Z,100.00
2019-02-10T18:32:02.699Z,99.64
2019-02-10T18:34:43.950Z,99.67
2019-02-10T18:37:37.342Z,99.98
2019-02-10T18:40:27.396Z,100.00
2019-02-10T18:43:12.201Z,100.00
2019-02-10T18:45:57.581Z,100.00
2019-02-10T18:48:50.697Z,100.00
2019-02-10T18:51:50.920Z,100.00
2019-02-10T18:54:33.454Z,99.64
2019-02-10T18:57:31.749Z,99.50
2019-02-10T19:00:24.183Z,99.47
2019-02-10T19:03:04.124Z,99.13
2019-02-10T19:05:46.750Z,98.76
2019-02-10T19:08:32.074Z,98.81
2019-02-10T19:11:21.459Z,98.65
2019-02-10T19:14:01.850Z,98.55
2019-02-10T19:16:58.675Z,98.25
2019-02-10T19:19:42.448Z,98.14
2019-02-10T19:22:32.423Z,97.97
2019-02-10T19:25:19.773Z,98.06
2019-02-10T19:28:03.685Z,98.09
2019-02-10T19:31:10.984Z,97.71
2019-02-10T19:33:58.732Z,97.63
2019-02-10T19:36:43.328Z,97.56
2019-02-10T19:39:32.471Z,97.47
2019-02-10T19:42:19.180Z,96.92
2019-02-10T19:45:09.876Z,96.75
2019-02-10T19:47:57.920Z,96.58
2019-02-10T19:50:48.825Z,96.11
2019-02-10T19:53:27.301Z,96.08
2019-02-10T19:56:14.058Z,95.64
2019-02-10T19:59:03.406Z,95.50
2019-02-10T20:02:07.193Z,96.07
2019-02-10T20:05:02.015Z,96.51
2019-02-10T20:07:50.524Z,95.65
2019-02-10T20:10:41.049Z,95.21
2019-02-10T20:13:28.003Z,95.27
2019-02-10T20:16:07.283Z,95.17
2019-02-10T20:19:00.171Z,94.90
2019-02-10T20:21:54.840Z,94.93
2019-02-10T20:24:44.217Z,95.33
2019-02-10T20:27:38.688Z,94.87
2019-02-10T20:30:19.898Z,95.04
2019-02-10T20:33:21.854Z,94.88
2019-02-10T20:36:02.624Z,94.66
2019-02-10T20:38:50.512Z,94.69
2019-02-10T20:41:49.027Z,94.85
2019-02-10T20:44:43.628Z,94.79
2019-02-10T20:47:42.392Z,94.46
2019-02-10T20:50:37.009Z,93.53
2019-02-10T20:53:24.959Z,92.44
2019-02-10T20:56:15.289Z,91.84
2019-02-10T20:59:04.660Z,91.79
2019-02-10T21:01:55.303Z,91.05
2019-02-10T21:04:43.514Z,91.06
2019-02-10T21:07:42.507Z,91.43
2019-02-10T21:10:44.529Z,91.70
2019-02-10T21:13:50.408Z,91.71
2019-02-10T21:16:49.947Z,90.83
2019-02-10T21:19:40.349Z,90.99
2019-02-10T21:22:27.827Z,91.17
2019-02-10T21:25:13.442Z,90.30
2019-02-10T21:28:12.483Z,90.46
2019-02-10T21:31:01.810Z,90.39
2019-02-10T21:33:51.981Z,90.19
2019-02-10T21:36:36.266Z,89.98
2019-02-10T21:39:22.592Z,89.94
2019-02-10T21:42:17.578Z,89.83
2019-02-10T21:45:15.281Z,89.68
2019-02-10T21:48:05.133Z,89.59
2019-02-10T21:50:37.788Z,89.66
2019-02-10T21:53:10.713Z,89.74
2019-02-10T21:55:41.199Z,89.80
2019-02-10T21:58:12.716Z,90.55
2019-02-10T22:00:44.663Z,92.48
2019-02-10T22:03:17.627Z,94.31
2019-02-10T22:05:50.686Z,95.50
2019-02-10T22:08:21.743Z,96.31
2019-02-10T22:10:52.837Z,96.30
2019-02-10T22:13:23.747Z,96.35
2019-02-10T22:15:56.850Z,96.83
2019-02-10T22:18:28.774Z,96.83
2019-02-10T22:21:02.035Z,98.33
2019-02-10T22:23:32.715Z,98.67
2019-02-10T22:26:03.853Z,98.67
2019-02-10T22:28:35.853Z,98.91
2019-02-10T22:31:07.788Z,99.49
2019-02-10T22:33:38.815Z,99.49
2019-02-10T22:36:09.776Z,99.29
2019-02-10T22:38:40.635Z,99.07
2019-02-10T22:41:11.598Z,98.84
2019-02-10T22:43:42.005Z,98.06
2019-02-10T22:46:12.866Z,98.06
2019-02-10T22:48:43.778Z,95.56
2019-02-10T22:51:14.620Z,95.56
2019-02-10T22:53:45.355Z,92.91
2019-02-10T22:56:15.992Z,92.91
2019-02-10T22:58:46.870Z,93.15
2019-02-10T23:01:17.620Z,92.59
2019-02-10T23:03:49.148Z,92.21
2019-02-10T23:06:19.530Z,91.07
2019-02-10T23:08:50.142Z,90.63
2019-02-10T23:11:20.523Z,90.26
2019-02-10T23:13:50.917Z,90.17
2019-02-10T23:16:22.661Z,90.49
2019-02-10T23:18:53.473Z,90.92
2019-02-10T23:21:24.176Z,91.25
2019-02-10T23:23:55.281Z,90.46
2019-02-10T23:26:26.001Z,90.09
2019-02-10T23:28:57.070Z,90.03
2019-02-10T23:31:27.978Z,89.12
2019-02-10T23:33:59.108Z,89.03
2019-02-10T23:36:30.090Z,88.64
2019-02-10T23:39:01.024Z,88.02
2019-02-10T23:41:31.992Z,87.76
2019-02-10T23:44:02.899Z,87.52
2019-02-10T23:46:33.823Z,86.38
2019-02-10T23:49:04.227Z,85.41
2019-02-10T23:51:35.246Z,83.11
2019-02-10T23:54:06.241Z,82.71
2019-02-10T23:56:37.163Z,82.10
2019-02-10T23:59:08.264Z,81.50
